EBLG/LGG METAR and TAF weather

Enter ICAO airport designator
Station Type Date Time Source
EBLG METAR 2020/10/20 17:20 UTC NOAA

EBLG 201720Z 19014KT 9999 -RA NSC 14/12 Q1009 NOSIG


Station Type Date Time Source
EBLG Decoded METAR 2020/10/20 17:20 UTC NOAA

Bierset, Belgium (EBLG) 50-39N 005-27E 178M
Oct 20, 2020 - 01:20 PM EDT / 2020.10.20 1720 UTC
Wind: from the S (190 degrees) at 16 MPH (14 KT):0
Visibility: greater than 7 mile(s):0
Weather: light rain
Temperature: 57 F (14 C)
Dew Point: 53 F (12 C)
Relative Humidity: 87%
Pressure (altimeter): 29.80 in. Hg (1009 hPa)
ob: EBLG 201720Z 19014KT 9999 -RA NSC 14/12 Q1009 NOSIG
cycle: 17

Station Type Date Time Source
EBLG TAF 2020/10/20 18:00 UTC NOAA

TAF EBLG 201710Z 2018/2124 18012KT 9999 -RA SCT030 PROB30
TEMPO 2018/2022 BKN012
TEMPO 2022/2106 3500 RA BKN009
BECMG 2106/2109 20016G26KT
TEMPO 2110/2117 21020G36KT PROB30
TEMPO 2114/2121 4000 SHRA
BECMG 2119/2121 21012KT

Example: see airport list